KPPA

Perry Lefors Field Airport

Pampa, Texas, USA
METAR KPPA 180155Z AUTO 14006KT 10SM CLR 24/19 A3014 RMK AO2 T02370185
Observed Flight Rules
Aug-18 @ 01:55 UTC (34 minutes ago) Visual Flight Rules
Wind Visibility Clouds
140° at 6 knots 10 miles
  • Clear skies
Temperatures Readings
Current 24°C / 75°F
Dewpoint 19°C / 66°F
Humidity 74%
Altimeter 30.14" Hg
Pressure 1021 hPa
Elevation 989
METAR KPPA 180155Z AUTO 14006KT 10SM CLR 24/19 A3014 RMK AO2 T02370185
Observed Flight Rules
Aug-18 @ 01:55 UTC
(34 minutes ago)
VFR
Wind Visibility
140° at 6 knots 10 miles
Clouds
  • Clear skies
Temperature Dewpoint
24°C / 75°F 19°C / 66°F
Humidity Altimeter Pressure
74% 30.14" Hg 1021 hPa